Time;durP1;ratioP1;P1;durP2;ratioP2;P2;SDS_P1;SDS_P2;PMS_P1;PMS_P2;Temp;Humidity;BMP_temperature;BMP_pressure;BME280_temperature;BME280_humidity;BME280_pressure;Samples;Min_cycle;Max_cycle;Signal;HPM_P1;HPM_P2
2024/01/27 00:00:11;;;;;;;9.90;4.90;;;;;;;2.37;74.98;98941.27;108408;1257;95690;-78
2024/01/27 00:02:58;;;;;;;10.40;5.20;;;;;;;2.45;74.98;98939.73;108420;1257;94872;-78
2024/01/27 00:05:24;;;;;;;;;;;;;;;2.56;74.99;98942.96;108289;1260;94661;-78
2024/01/27 00:07:54;;;;;;;8.80;4.90;;;;;;;2.67;75.22;98944.23;108452;1254;94839;-78
2024/01/27 00:10:21;;;;;;;11.80;5.70;;;;;;;2.78;75.80;98945.53;108454;1254;94792;-78
2024/01/27 00:12:47;;;;;;;11.20;6.00;;;;;;;2.88;75.99;98951.77;108445;1257;95706;-79
2024/01/27 00:15:14;;;;;;;11.90;5.90;;;;;;;2.96;76.05;98955.96;108464;1257;94523;-78
2024/01/27 00:17:40;;;;;;;10.30;5.90;;;;;;;3.05;76.58;98957.17;108501;1254;94814;-79
2024/01/27 00:20:07;;;;;;;;;;;;;;;3.11;76.95;98954.98;108419;1257;107472;-78
2024/01/27 00:22:34;;;;;;;13.00;6.40;;;;;;;3.15;77.27;98955.88;108436;1257;94672;-79
2024/01/27 00:25:00;;;;;;;10.80;6.00;;;;;;;3.19;77.16;98951.32;108470;1257;94250;-79
2024/01/27 00:27:26;;;;;;;11.60;7.10;;;;;;;3.28;78.21;98961.61;108496;1255;94309;-78
2024/01/27 00:29:53;;;;;;;12.90;7.50;;;;;;;3.32;77.98;98964.73;108524;1256;94330;-79
2024/01/27 00:32:19;;;;;;;10.90;5.00;;;;;;;3.37;78.36;98962.23;108514;1257;94353;-79
2024/01/27 00:34:46;;;;;;;12.10;5.70;;;;;;;3.45;79.31;98968.57;108497;1256;94379;-79
2024/01/27 00:37:12;;;;;;;14.40;7.40;;;;;;;3.53;79.63;98972.20;108476;1256;94345;-79
2024/01/27 00:39:39;;;;;;;10.60;6.10;;;;;;;3.57;79.51;98970.83;108499;1256;94358;-79
2024/01/27 00:42:05;;;;;;;12.80;6.30;;;;;;;3.62;80.08;98975.55;108552;1256;94495;-79
2024/01/27 00:44:32;;;;;;;12.40;6.20;;;;;;;3.64;79.96;98979.81;108480;1257;94275;-79
2024/01/27 00:46:58;;;;;;;8.20;5.00;;;;;;;3.67;80.06;98979.31;108580;1254;94565;-79
2024/01/27 00:49:24;;;;;;;14.10;7.50;;;;;;;3.69;80.37;98987.96;108499;1256;94807;-78
2024/01/27 00:51:51;;;;;;;12.70;7.60;;;;;;;3.71;80.68;98987.01;108562;1256;94719;-79
2024/01/27 00:54:17;;;;;;;;;;;;;;;3.70;80.22;98988.29;108582;1254;94238;-78
2024/01/27 00:56:44;;;;;;;16.40;7.50;;;;;;;3.71;80.41;98994.73;108495;1254;109924;-79
2024/01/27 00:59:10;;;;;;;;;;;;;;;3.71;80.21;98995.23;108607;1254;94695;-79
2024/01/27 01:01:37;;;;;;;13.60;6.90;;;;;;;3.74;80.72;99000.05;108557;1254;94359;-78
2024/01/27 01:04:03;;;;;;;;;;;;;;;3.76;80.90;99003.14;108459;1256;94691;-79
2024/01/27 01:06:30;;;;;;;9.10;5.20;;;;;;;3.78;81.29;99002.34;108447;1254;110497;-79
2024/01/27 01:08:56;;;;;;;11.20;6.00;;;;;;;3.81;81.56;99005.52;108530;1257;94591;-79
2024/01/27 01:11:23;;;;;;;13.90;6.20;;;;;;;3.84;81.53;99007.84;108462;1255;94328;-78
2024/01/27 01:13:49;;;;;;;10.00;5.10;;;;;;;3.88;81.78;99011.30;108544;1254;94548;-78
2024/01/27 01:16:15;;;;;;;10.80;6.60;;;;;;;3.92;81.83;99010.96;108559;1256;94555;-78
2024/01/27 01:18:42;;;;;;;14.30;6.40;;;;;;;3.93;81.82;99015.48;108443;1254;96127;-78
2024/01/27 01:21:08;;;;;;;8.80;5.40;;;;;;;3.96;82.10;99015.38;108518;1256;94695;-78
2024/01/27 01:23:35;;;;;;;10.20;5.00;;;;;;;3.98;82.23;99020.86;108538;1255;94314;-78
2024/01/27 01:26:02;;;;;;;7.90;3.90;;;;;;;4.01;82.32;99021.45;108529;1256;94651;-78
2024/01/27 01:28:28;;;;;;;8.30;4.70;;;;;;;4.04;82.29;99022.89;108620;1254;95222;-78
2024/01/27 01:30:54;;;;;;;;;;;;;;;4.08;82.82;99023.97;108527;1254;106208;-78
2024/01/27 01:33:21;;;;;;;5.70;3.50;;;;;;;4.08;82.90;99025.86;108533;1256;94249;-78
2024/01/27 01:35:47;;;;;;;;;;;;;;;4.08;82.82;99031.48;108537;1254;94596;-78
2024/01/27 01:38:14;;;;;;;8.30;4.10;;;;;;;4.10;82.90;99033.52;108653;1254;94548;-79
2024/01/27 01:40:40;;;;;;;10.30;4.80;;;;;;;4.11;82.76;99030.45;108527;1254;108339;-78
2024/01/27 01:43:11;;;;;;;6.40;4.20;;;;;;;4.13;83.22;99039.15;108546;1254;94687;-79
2024/01/27 01:45:37;;;;;;;6.10;3.30;;;;;;;4.14;83.19;99040.52;108583;1254;94260;-78
2024/01/27 01:48:05;;;;;;;4.70;2.90;;;;;;;4.16;83.44;99043.92;108568;1256;94392;-79
2024/01/27 01:50:32;;;;;;;7.00;3.10;;;;;;;4.16;83.65;99048.28;108545;1254;94599;-79
2024/01/27 01:52:59;;;;;;;3.80;2.70;;;;;;;4.16;83.63;99056.02;108631;1254;94860;-79
2024/01/27 01:55:25;;;;;;;3.90;2.10;;;;;;;4.15;83.86;99064.14;108575;1254;94558;-79
2024/01/27 01:58:33;;;;;;;4.60;2.10;;;;;;;4.13;83.75;99075.27;108446;1257;94613;-79
2024/01/27 02:01:01;;;;;;;3.10;1.80;;;;;;;4.13;83.83;99082.11;108527;1255;110006;-79
2024/01/27 02:03:27;;;;;;;3.50;1.90;;;;;;;4.13;83.76;99084.61;108519;1254;95720;-79
2024/01/27 02:05:55;;;;;;;3.50;1.30;;;;;;;4.12;83.79;99093.25;108414;1254;94569;-79
2024/01/27 02:08:21;;;;;;;3.10;1.70;;;;;;;4.11;83.60;99094.54;108518;1255;94234;-79
2024/01/27 02:10:48;;;;;;;;;;;;;;;4.08;83.39;99109.08;108568;1256;94269;-79
2024/01/27 02:13:19;;;;;;;2.30;1.30;;;;;;;4.05;83.25;99113.59;108388;1254;94603;-80
2024/01/27 02:15:46;;;;;;;1.90;1.50;;;;;;;4.03;82.99;99121.58;108462;1256;95844;-79
2024/01/27 02:18:13;;;;;;;2.80;1.60;;;;;;;4.00;83.04;99130.46;108473;1256;107823;-79
2024/01/27 02:20:39;;;;;;;2.50;1.40;;;;;;;3.97;82.85;99137.80;108391;1254;94759;-79
2024/01/27 02:23:06;;;;;;;1.90;1.10;;;;;;;3.94;83.02;99144.79;108516;1257;94733;-79
2024/01/27 02:25:33;;;;;;;1.80;1.10;;;;;;;3.93;82.97;99156.23;108345;1256;94527;-79
2024/01/27 02:28:02;;;;;;;4.70;1.70;;;;;;;3.89;82.75;99158.65;108506;1254;94672;-79
2024/01/27 02:30:29;;;;;;;6.80;1.90;;;;;;;3.87;82.65;99166.30;108325;1257;94776;-79
2024/01/27 02:32:56;;;;;;;;;;;;;;;3.82;82.75;99169.16;108506;1256;94549;-79
2024/01/27 02:35:23;;;;;;;2.70;1.10;;;;;;;3.73;82.52;99174.45;108536;1255;95608;-79
2024/01/27 02:37:49;;;;;;;3.00;1.30;;;;;;;3.68;82.62;99190.44;108568;1256;94245;-79
2024/01/27 02:40:16;;;;;;;2.30;1.20;;;;;;;3.64;82.30;99200.77;108570;1256;94402;-79
2024/01/27 02:42:43;;;;;;;;;;;;;;;3.61;82.14;99204.40;108521;1256;94266;-79
2024/01/27 02:45:11;;;;;;;2.40;1.30;;;;;;;3.57;82.05;99205.45;108574;1254;94551;-79
2024/01/27 02:47:38;;;;;;;2.10;0.80;;;;;;;3.54;82.09;99204.15;108330;1257;109944;-79
2024/01/27 02:50:06;;;;;;;2.90;1.40;;;;;;;3.51;81.89;99210.08;108541;1256;94373;-78
2024/01/27 02:52:33;;;;;;;3.10;1.70;;;;;;;3.48;81.95;99215.13;108491;1256;107247;-78
2024/01/27 02:54:59;;;;;;;4.70;1.70;;;;;;;3.45;81.96;99218.56;108483;1255;94315;-79
2024/01/27 02:57:26;;;;;;;;;;;;;;;3.45;81.63;99221.39;108571;1255;94240;-79
2024/01/27 02:59:52;;;;;;;3.10;1.80;;;;;;;3.41;81.71;99233.98;108537;1254;94569;-79
2024/01/27 03:02:18;;;;;;;;;;;;;;;3.39;81.70;99236.70;108629;1255;94528;-78
2024/01/27 03:04:45;;;;;;;4.20;1.80;;;;;;;3.34;81.63;99259.14;108516;1254;94518;-79
2024/01/27 03:07:11;;;;;;;4.20;1.30;;;;;;;3.31;81.51;99243.32;108584;1254;94487;-78
2024/01/27 03:09:38;;;;;;;7.00;2.40;;;;;;;3.30;81.35;99243.86;108536;1254;94358;-78
2024/01/27 03:12:05;;;;;;;6.20;1.70;;;;;;;3.26;81.60;99247.17;108678;1254;94477;-79
2024/01/27 03:14:31;;;;;;;3.80;1.50;;;;;;;3.27;81.06;99245.57;108508;1254;94558;-77
2024/01/27 03:16:58;;;;;;;3.30;1.40;;;;;;;3.23;81.34;99249.05;108572;1254;94489;-76
2024/01/27 03:19:24;;;;;;;8.30;2.00;;;;;;;3.17;81.00;99244.73;108592;1254;94231;-79
2024/01/27 03:21:51;;;;;;;;;;;;;;;3.14;81.02;99248.02;108560;1256;94303;-78
2024/01/27 03:24:17;;;;;;;3.30;1.90;;;;;;;3.09;81.13;99244.52;108603;1254;94324;-79
2024/01/27 03:26:44;;;;;;;2.50;1.50;;;;;;;3.05;80.62;99254.34;108561;1256;94574;-79
2024/01/27 03:29:10;;;;;;;4.20;2.10;;;;;;;3.03;80.95;99255.99;108566;1256;94642;-79
2024/01/27 03:31:36;;;;;;;7.80;2.60;;;;;;;2.98;80.58;99264.02;108522;1256;94393;-79
2024/01/27 03:34:03;;;;;;;4.70;1.50;;;;;;;2.97;80.41;99270.23;108600;1255;94468;-79
2024/01/27 03:36:30;;;;;;;5.70;1.90;;;;;;;2.95;80.30;99269.92;108580;1254;94852;-78
2024/01/27 03:38:58;;;;;;;3.50;1.80;;;;;;;2.95;80.26;99269.41;108523;1254;94630;-78
2024/01/27 03:41:25;;;;;;;5.50;2.00;;;;;;;2.93;79.94;99272.65;108583;1256;94669;-78
2024/01/27 03:43:51;;;;;;;7.20;2.30;;;;;;;2.92;79.81;99271.96;108551;1254;94278;-79
2024/01/27 03:46:18;;;;;;;5.60;1.30;;;;;;;2.93;79.42;99269.83;108531;1256;94306;-77
2024/01/27 03:48:44;;;;;;;6.10;2.00;;;;;;;2.95;78.99;99266.27;108637;1256;94342;-76
2024/01/27 03:51:11;;;;;;;4.40;1.70;;;;;;;2.95;78.52;99275.00;108560;1255;96924;-76
2024/01/27 03:53:37;;;;;;;10.00;2.20;;;;;;;2.93;78.61;99276.84;108550;1256;94286;-77
2024/01/27 03:56:04;;;;;;;6.20;1.60;;;;;;;2.94;78.38;99283.80;108566;1256;94241;-76
2024/01/27 03:58:31;;;;;;;4.00;1.80;;;;;;;2.96;78.11;99292.14;108596;1256;94680;-77
2024/01/27 04:00:57;;;;;;;;;;;;;;;2.95;78.31;99290.95;108480;1254;94478;-76
2024/01/27 04:03:24;;;;;;;11.30;1.90;;;;;;;2.93;78.11;99293.30;108546;1254;107057;-77
2024/01/27 04:05:50;;;;;;;6.50;1.70;;;;;;;2.93;77.65;99296.30;108603;1256;94314;-76
2024/01/27 04:08:17;;;;;;;;;;;;;;;2.92;77.51;99299.48;108545;1255;94223;-77
2024/01/27 04:10:43;;;;;;;6.10;1.30;;;;;;;2.91;77.21;99301.96;108561;1255;94596;-77
2024/01/27 04:13:10;;;;;;;4.70;1.60;;;;;;;2.94;77.25;99303.96;108609;1256;94822;-77
2024/01/27 04:15:39;;;;;;;4.50;2.20;;;;;;;2.97;77.30;99306.81;108568;1255;94567;-77
2024/01/27 04:18:08;;;;;;;2.90;1.50;;;;;;;2.96;76.91;99314.05;108585;1256;94309;-77
2024/01/27 04:20:35;;;;;;;5.90;2.00;;;;;;;2.97;77.22;99315.23;108546;1255;109478;-77
2024/01/27 04:23:02;;;;;;;5.60;2.00;;;;;;;2.99;77.41;99320.95;108580;1256;94288;-77
2024/01/27 04:25:28;;;;;;;4.50;2.00;;;;;;;2.99;77.06;99320.59;108503;1254;94585;-76
2024/01/27 04:27:55;;;;;;;6.00;1.80;;;;;;;2.99;76.82;99322.68;108554;1256;94537;-77
2024/01/27 04:30:21;;;;;;;5.20;2.10;;;;;;;3.02;77.29;99312.61;108585;1256;94280;-77
2024/01/27 04:32:49;;;;;;;9.10;2.80;;;;;;;3.02;77.07;99307.35;108549;1256;94302;-77
2024/01/27 04:35:16;;;;;;;3.60;1.60;;;;;;;3.01;76.93;99316.68;108517;1256;94351;-76
2024/01/27 04:37:44;;;;;;;7.00;1.70;;;;;;;3.00;76.57;99315.83;108687;1254;94313;-77
2024/01/27 04:40:12;;;;;;;5.50;1.90;;;;;;;2.99;76.71;99315.52;108606;1254;94309;-77
2024/01/27 04:42:39;;;;;;;2.90;1.50;;;;;;;3.00;76.62;99317.95;108564;1255;109907;-76
2024/01/27 04:45:06;;;;;;;5.00;1.70;;;;;;;3.01;76.28;99318.97;108633;1254;94317;-78
2024/01/27 04:47:33;;;;;;;10.10;2.20;;;;;;;3.01;76.63;99316.66;108603;1254;94285;-77
2024/01/27 04:49:59;;;;;;;;;;;;;;;3.02;76.29;99319.60;108609;1254;94225;-77
2024/01/27 04:52:26;;;;;;;4.20;1.50;;;;;;;3.01;75.96;99317.39;108559;1254;94762;-76
2024/01/27 04:54:52;;;;;;;3.90;2.00;;;;;;;3.00;75.94;99316.89;108658;1255;94310;-77
2024/01/27 04:57:19;;;;;;;;;;;;;;;2.99;76.02;99314.63;108421;1255;107841;-77
2024/01/27 04:59:45;;;;;;;7.80;1.40;;;;;;;2.99;75.90;99323.41;108594;1255;94339;-76
2024/01/27 05:02:12;;;;;;;4.80;2.10;;;;;;;2.99;75.77;99326.73;108541;1255;95045;-76
2024/01/27 05:04:38;;;;;;;4.40;1.60;;;;;;;2.99;75.75;99328.85;108704;1256;94656;-76
2024/01/27 05:07:04;;;;;;;7.60;2.00;;;;;;;2.99;75.32;99320.44;108515;1254;107669;-77
2024/01/27 05:09:31;;;;;;;3.10;1.40;;;;;;;2.99;75.37;99330.42;108580;1256;94635;-77
2024/01/27 05:11:59;;;;;;;4.90;2.20;;;;;;;3.01;75.61;99338.02;108575;1255;94358;-77
2024/01/27 05:14:26;;;;;;;11.10;3.50;;;;;;;3.04;75.13;99342.48;108543;1256;94261;-76
2024/01/27 05:16:53;;;;;;;4.10;1.80;;;;;;;3.05;74.95;99343.67;108566;1256;94600;-76
2024/01/27 05:19:19;;;;;;;7.40;2.10;;;;;;;3.06;75.12;99346.45;108524;1254;94534;-76
2024/01/27 05:21:45;;;;;;;;;;;;;;;3.07;74.97;99344.64;108597;1255;94546;-77
2024/01/27 05:24:12;;;;;;;4.40;1.60;;;;;;;3.07;74.75;99344.46;108556;1254;110066;-77
2024/01/27 05:26:38;;;;;;;7.30;2.30;;;;;;;3.06;74.58;99349.42;108424;1257;94745;-77
2024/01/27 05:29:05;;;;;;;6.90;1.80;;;;;;;3.06;74.40;99355.54;108528;1255;94313;-77
2024/01/27 05:31:31;;;;;;;5.50;1.90;;;;;;;3.08;74.40;99359.67;108577;1254;95443;-76
2024/01/27 05:33:58;;;;;;;6.60;1.40;;;;;;;3.09;74.45;99358.92;108518;1256;109519;-77
2024/01/27 05:36:25;;;;;;;4.90;2.00;;;;;;;3.07;74.37;99359.88;108500;1256;94294;-77
2024/01/27 05:38:51;;;;;;;;;;;;;;;3.07;74.03;99361.80;108599;1256;94293;-76
2024/01/27 05:41:17;;;;;;;6.50;2.30;;;;;;;3.06;74.06;99367.80;108514;1256;94478;-77
2024/01/27 05:43:44;;;;;;;3.00;1.30;;;;;;;3.05;73.67;99371.20;108645;1255;95511;-77
2024/01/27 05:46:10;;;;;;;10.10;2.20;;;;;;;3.04;74.05;99372.60;108585;1256;94554;-77
2024/01/27 05:48:36;;;;;;;2.60;1.50;;;;;;;3.04;73.68;99380.34;108398;1256;94329;-77
2024/01/27 05:51:04;;;;;;;5.20;1.60;;;;;;;3.03;73.30;99380.73;108538;1255;94532;-77
2024/01/27 05:53:31;;;;;;;6.50;2.50;;;;;;;3.02;73.46;99387.41;108556;1255;94620;-77
2024/01/27 05:55:57;;;;;;;9.40;3.80;;;;;;;3.03;73.26;99389.31;108509;1256;94619;-77
2024/01/27 05:58:23;;;;;;;12.90;4.30;;;;;;;3.03;73.19;99394.39;108571;1256;95057;-77
2024/01/27 06:00:50;;;;;;;8.20;3.60;;;;;;;3.01;73.40;99398.47;108435;1256;94339;-76
2024/01/27 06:03:17;;;;;;;10.60;3.40;;;;;;;3.00;73.29;99392.92;108466;1256;94735;-77
2024/01/27 06:05:44;;;;;;;10.20;2.20;;;;;;;3.01;73.14;99397.09;108492;1256;95180;-77
2024/01/27 06:08:10;;;;;;;4.50;2.10;;;;;;;3.00;73.53;99399.91;108500;1255;94366;-77
2024/01/27 06:10:36;;;;;;;7.40;2.20;;;;;;;2.99;73.48;99413.98;108531;1256;95746;-77
2024/01/27 06:13:03;;;;;;;8.60;3.50;;;;;;;2.98;73.24;99415.23;108586;1255;94256;-77
2024/01/27 06:15:30;;;;;;;5.20;2.30;;;;;;;2.97;73.11;99417.35;108551;1256;94284;-77
2024/01/27 06:17:57;;;;;;;;;;;;;;;2.96;73.52;99420.23;108518;1255;94918;-77
2024/01/27 06:20:24;;;;;;;7.30;2.10;;;;;;;2.93;73.12;99413.47;108583;1254;94841;-76
2024/01/27 06:22:52;;;;;;;7.50;2.50;;;;;;;2.91;73.22;99415.48;108388;1256;94312;-77
2024/01/27 06:25:20;;;;;;;8.90;2.40;;;;;;;2.91;73.41;99420.55;108515;1255;95441;-79
2024/01/27 06:27:47;;;;;;;11.00;2.50;;;;;;;2.90;73.38;99418.16;108473;1256;94420;-79
2024/01/27 06:30:14;;;;;;;10.60;4.70;;;;;;;2.89;73.31;99425.89;108349;1255;94769;-79
2024/01/27 06:32:41;;;;;;;14.60;3.90;;;;;;;2.87;73.59;99428.40;108571;1255;94291;-77
2024/01/27 06:35:08;;;;;;;6.90;1.80;;;;;;;2.85;73.66;99433.93;108535;1256;94327;-77
2024/01/27 06:37:35;;;;;;;9.20;2.10;;;;;;;2.83;73.75;99428.02;108493;1255;95696;-77
2024/01/27 06:40:01;;;;;;;;;;;;;;;2.82;73.54;99429.11;108592;1256;94612;-77
2024/01/27 06:42:28;;;;;;;7.20;2.70;;;;;;;2.81;73.82;99425.29;108495;1255;94594;-76
2024/01/27 06:44:54;;;;;;;6.50;2.70;;;;;;;2.80;73.95;99422.02;108493;1256;94345;-77
2024/01/27 06:47:21;;;;;;;5.50;2.30;;;;;;;2.77;73.90;99427.88;108594;1255;94688;-78
2024/01/27 06:49:47;;;;;;;11.20;2.90;;;;;;;2.79;73.85;99429.75;108476;1256;96252;-78
2024/01/27 06:52:14;;;;;;;6.70;2.60;;;;;;;2.78;74.05;99431.69;108611;1255;94260;-77
2024/01/27 06:54:43;;;;;;;8.90;2.60;;;;;;;2.77;73.94;99436.47;108562;1254;94785;-77
2024/01/27 06:57:21;;;;;;;11.50;1.80;;;;;;;2.78;73.93;99440.80;108532;1256;94382;-76
2024/01/27 06:59:52;;;;;;;5.50;2.40;;;;;;;2.79;73.93;99441.81;108545;1256;109887;-77
2024/01/27 07:53:15;;;;;;;;;;;;;;;;;;;;;
2024/01/27 08:28:56;;;;;;;3.80;2.00;;;;;;;3.18;71.65;99520.55;106797;1276;109887;-74
2024/01/27 08:31:29;;;;;;;10.40;3.40;;;;;;;3.18;71.51;99518.45;106914;1276;95529;-74
2024/01/27 08:34:16;;;;;;;4.80;2.20;;;;;;;3.19;71.66;99525.96;106980;1275;106806;-76
2024/01/27 08:40:59;;;;;;;20.90;2.80;;;;;;;3.22;71.56;99530.04;108149;1261;94531;-73
2024/01/27 08:43:25;;;;;;;5.60;1.90;;;;;;;3.21;71.57;99524.98;108142;1261;94790;-73
2024/01/27 08:45:56;;;;;;;5.50;2.10;;;;;;;3.23;71.46;99525.48;108464;1255;94515;-73
2024/01/27 08:48:40;;;;;;;8.20;2.30;;;;;;;3.26;71.39;99529.88;108561;1256;107649;-73
2024/01/27 08:51:16;;;;;;;4.50;1.50;;;;;;;3.29;71.37;99532.58;108574;1254;94613;-74
2024/01/27 08:53:49;;;;;;;10.20;4.00;;;;;;;3.32;71.79;99526.74;108592;1257;94288;-73
2024/01/27 08:56:17;;;;;;;5.50;2.30;;;;;;;3.30;71.62;99526.98;108520;1256;94527;-72
2024/01/27 08:58:44;;;;;;;8.70;2.60;;;;;;;3.25;71.69;99523.98;108370;1255;95354;-72
2024/01/27 09:01:12;;;;;;;6.60;2.80;;;;;;;3.25;71.58;99526.09;108264;1257;94347;-74
2024/01/27 09:04:51;;;;;;;10.10;2.40;;;;;;;3.24;71.72;99524.54;108344;1257;94555;-77
2024/01/27 09:08:17;;;;;;;6.60;2.30;;;;;;;3.19;71.99;99526.83;108314;1256;94643;-77
2024/01/27 09:11:30;;;;;;;9.00;2.70;;;;;;;3.14;72.18;99535.23;108498;1255;109479;-83
2024/01/27 09:14:12;;;;;;;;;;;;;;;;;;;;;
2024/01/27 09:17:12;;;;;;;12.40;2.50;;;;;;;3.03;72.36;99544.73;108263;1259;107999;-77
2024/01/27 09:20:02;;;;;;;9.30;3.00;;;;;;;2.98;72.48;99545.76;108294;1256;95616;-83
2024/01/27 09:22:31;;;;;;;5.20;2.30;;;;;;;2.91;72.75;99549.67;108308;1256;94582;-74
2024/01/27 09:24:58;;;;;;;;;;;;;;;2.84;72.91;99538.54;108407;1256;94306;-73
2024/01/27 09:27:24;;;;;;;7.20;3.30;;;;;;;2.87;73.05;99539.64;108329;1257;94734;-74
2024/01/27 09:30:23;;;;;;;;;;;;;;;;;;;;;
2024/01/27 09:38:14;;;;;;;;;;;;;;;;;;;;;
2024/01/27 09:40:52;;;;;;;10.40;2.70;;;;;;;2.98;73.24;99543.30;108115;1257;110049;-73
2024/01/27 09:57:55;;;;;;;9.50;3.40;;;;;;;2.90;73.13;99548.48;106445;1280;94793;-77
2024/01/27 10:00:27;;;;;;;16.90;6.30;;;;;;;2.87;73.06;99558.05;107057;1270;109953;-72
2024/01/27 10:02:57;;;;;;;10.20;3.50;;;;;;;2.80;73.27;99550.91;108156;1257;94412;-74
2024/01/27 10:14:09;;;;;;;7.90;2.70;;;;;;;2.76;73.54;99553.48;107843;1262;96062;-74
2024/01/27 10:16:47;;;;;;;13.00;4.60;;;;;;;2.74;73.73;99551.09;107902;1265;110043;-75
2024/01/27 10:19:28;;;;;;;11.20;4.90;;;;;;;2.72;73.66;99556.95;107987;1262;95275;-74
2024/01/27 10:27:23;;;;;;;9.90;2.80;;;;;;;2.62;74.33;99556.04;106327;1282;94913;-73
2024/01/27 10:35:34;;;;;;;12.90;5.80;;;;;;;2.54;74.93;99562.44;106848;1274;109994;-72
2024/01/27 10:38:00;;;;;;;15.10;5.10;;;;;;;2.51;75.10;99565.84;107584;1268;95439;-72
2024/01/27 10:40:27;;;;;;;16.70;5.70;;;;;;;2.48;74.78;99566.45;107772;1262;94452;-71
2024/01/27 10:43:04;;;;;;;12.10;6.30;;;;;;;2.48;75.18;99565.92;107971;1262;94754;-71
2024/01/27 10:45:38;;;;;;;8.30;4.00;;;;;;;2.48;75.27;99569.25;107941;1263;94770;-72
2024/01/27 10:48:10;;;;;;;12.40;4.90;;;;;;;2.46;75.18;99569.33;107959;1262;110024;-72
2024/01/27 10:50:43;;;;;;;12.40;4.00;;;;;;;2.45;75.23;99570.21;107924;1263;95573;-74
2024/01/27 10:53:30;;;;;;;10.70;5.10;;;;;;;2.43;75.60;99569.59;107918;1264;107638;-74
2024/01/27 10:56:19;;;;;;;14.30;4.90;;;;;;;2.40;75.54;99569.17;107951;1262;94540;-73
2024/01/27 10:59:36;;;;;;;7.80;3.80;;;;;;;2.37;75.70;99576.23;108062;1256;94466;-74
2024/01/27 11:04:16;;;;;;;;;;;;;;;;;;;;;
2024/01/27 11:07:35;;;;;;;10.00;4.60;;;;;;;2.23;76.73;99585.08;107345;1260;94753;-72
2024/01/27 11:10:22;;;;;;;9.40;5.20;;;;;;;2.20;76.95;99581.70;106446;1260;94265;-75
2024/01/27 11:12:55;;;;;;;11.90;4.80;;;;;;;2.20;76.87;99586.39;105387;1262;107185;-74
2024/01/27 11:15:32;;;;;;;10.10;5.30;;;;;;;2.20;77.22;99581.86;105286;1254;95431;-74
2024/01/27 11:17:59;;;;;;;15.50;6.60;;;;;;;2.19;77.15;99582.40;106391;1254;157783;-74
2024/01/27 11:20:26;;;;;;;17.10;7.00;;;;;;;2.16;77.48;99589.48;106673;1253;94409;-72
2024/01/27 11:23:08;;;;;;;12.50;5.90;;;;;;;2.16;77.13;99594.91;108464;1251;94083;-74
2024/01/27 11:34:45;;;;;;;20.00;8.50;;;;;;;2.02;78.11;99592.34;107229;1260;105937;-73
2024/01/27 11:37:16;;;;;;;12.00;5.20;;;;;;;2.03;78.23;99599.68;106077;1253;95412;-75
2024/01/27 11:39:43;;;;;;;13.20;5.30;;;;;;;2.05;78.21;99601.70;107461;1254;95229;-73
2024/01/27 11:42:15;;;;;;;13.10;5.50;;;;;;;2.03;78.02;99599.66;105621;1254;95320;-75
2024/01/27 11:44:42;;;;;;;19.50;7.60;;;;;;;2.04;77.86;99597.89;105899;1252;95626;-75
2024/01/27 11:47:17;;;;;;;13.70;6.50;;;;;;;2.05;78.38;99599.77;107012;1250;95269;-75
2024/01/27 11:49:53;;;;;;;12.50;5.40;;;;;;;2.04;78.42;99603.13;105746;1254;95279;-73
2024/01/27 11:52:20;;;;;;;9.70;5.40;;;;;;;2.00;78.53;99596.23;105666;1253;95168;-75
2024/01/27 11:54:53;;;;;;;8.00;3.50;;;;;;;2.00;78.28;99603.59;106480;1251;95226;-72
2024/01/27 11:57:19;;;;;;;7.10;4.00;;;;;;;1.99;78.68;99601.36;107375;1250;95118;-73
2024/01/27 11:59:46;;;;;;;;;;;;;;;2.00;78.66;99607.81;108764;1251;93169;-75
2024/01/27 12:02:13;;;;;;;19.00;6.30;;;;;;;1.99;78.70;99607.65;108782;1251;93186;-75
2024/01/27 12:04:39;;;;;;;13.20;6.30;;;;;;;2.02;78.77;99612.11;108798;1250;92949;-72
2024/01/27 12:07:07;;;;;;;16.20;6.90;;;;;;;2.02;79.04;99611.23;108761;1251;93349;-73
2024/01/27 12:09:34;;;;;;;;;;;;;;;2.02;79.27;99614.05;108742;1250;93149;-73
2024/01/27 12:12:01;;;;;;;18.90;9.30;;;;;;;1.99;79.23;99613.07;108794;1250;93265;-73
2024/01/27 12:14:47;;;;;;;25.30;11.00;;;;;;;2.00;79.55;99617.61;108846;1253;93157;-73
2024/01/27 12:17:15;;;;;;;25.10;11.10;;;;;;;2.02;79.57;99619.83;108761;1251;108519;-73
2024/01/27 12:19:53;;;;;;;21.60;8.80;;;;;;;2.06;79.57;99619.52;108822;1250;95462;-73
2024/01/27 12:22:22;;;;;;;;;;;;;;;2.08;79.63;99624.88;108695;1251;107472;-75
2024/01/27 12:24:48;;;;;;;17.70;8.00;;;;;;;2.08;79.43;99625.92;108829;1251;93630;-73
2024/01/27 12:27:18;;;;;;;16.50;8.60;;;;;;;2.09;79.52;99631.66;108794;1251;92917;-74
2024/01/27 12:29:56;;;;;;;21.20;8.20;;;;;;;2.11;79.66;99631.61;108688;1251;109147;-73
2024/01/27 12:32:25;;;;;;;13.90;5.60;;;;;;;2.12;80.05;99633.16;108831;1251;95553;-74
2024/01/27 12:34:52;;;;;;;10.10;4.70;;;;;;;2.12;79.85;99631.77;108814;1251;93248;-73
2024/01/27 12:37:21;;;;;;;13.00;5.80;;;;;;;2.14;80.07;99636.95;108836;1250;92877;-73
2024/01/27 12:39:50;;;;;;;12.50;6.00;;;;;;;2.15;80.34;99641.49;108787;1251;93381;-73
2024/01/27 12:42:17;;;;;;;10.50;5.00;;;;;;;2.15;80.47;99645.16;108809;1250;108810;-73
2024/01/27 12:44:44;;;;;;;13.90;6.70;;;;;;;2.13;80.31;99647.14;108822;1251;92928;-75
2024/01/27 12:47:15;;;;;;;12.50;6.40;;;;;;;2.12;80.24;99648.91;108759;1251;107462;-74
2024/01/27 12:50:02;;;;;;;9.90;5.50;;;;;;;2.13;80.23;99649.59;108817;1249;93362;-74
2024/01/27 12:52:29;;;;;;;14.50;5.90;;;;;;;2.09;80.55;99653.36;108824;1251;92984;-74
2024/01/27 12:54:56;;;;;;;11.80;6.30;;;;;;;2.10;80.54;99654.02;108727;1250;93114;-74
2024/01/27 12:57:22;;;;;;;12.00;4.90;;;;;;;2.13;80.43;99656.42;108626;1251;93335;-73
2024/01/27 12:59:49;;;;;;;6.70;3.50;;;;;;;2.15;80.43;99661.95;108864;1251;93029;-74
2024/01/27 13:02:17;;;;;;;12.50;5.00;;;;;;;2.15;80.60;99664.41;108674;1251;92912;-74
2024/01/27 13:04:43;;;;;;;;;;;;;;;2.14;80.61;99665.66;108776;1251;93182;-74
2024/01/27 13:07:11;;;;;;;6.00;3.20;;;;;;;2.12;80.92;99666.58;108730;1251;93378;-76
2024/01/27 13:09:38;;;;;;;7.30;3.80;;;;;;;2.14;80.90;99666.89;108905;1251;92931;-73
2024/01/27 13:12:05;;;;;;;9.50;4.70;;;;;;;2.15;81.20;99668.25;108778;1251;93226;-74
2024/01/27 13:14:31;;;;;;;16.80;6.00;;;;;;;2.15;81.17;99667.37;108698;1251;93041;-74
2024/01/27 13:16:59;;;;;;;10.90;5.20;;;;;;;2.15;80.97;99673.52;108638;1251;93311;-74
2024/01/27 13:19:27;;;;;;;12.20;5.10;;;;;;;2.16;81.16;99676.98;108811;1251;93164;-74
2024/01/27 13:21:54;;;;;;;15.00;6.20;;;;;;;2.19;81.09;99678.11;108856;1251;107601;-75
2024/01/27 13:24:20;;;;;;;23.40;8.50;;;;;;;2.22;81.24;99680.65;108871;1251;92948;-76
2024/01/27 13:26:47;;;;;;;;;;;;;;;2.22;81.04;99678.21;108779;1251;93003;-74
2024/01/27 13:29:13;;;;;;;10.70;4.60;;;;;;;2.23;81.42;99672.93;108958;1250;93960;-74
2024/01/27 13:31:40;;;;;;;14.60;7.10;;;;;;;2.23;81.29;99678.16;108832;1251;93396;-74
2024/01/27 13:34:06;;;;;;;;;;;;;;;2.26;81.05;99676.68;108787;1251;92991;-75
2024/01/27 13:36:35;;;;;;;11.40;5.60;;;;;;;2.25;81.31;99678.83;108771;1251;93112;-74
2024/01/27 13:39:02;;;;;;;11.20;5.60;;;;;;;2.25;81.40;99682.68;108820;1250;108593;-74
2024/01/27 13:41:28;;;;;;;;;;;;;;;2.28;81.22;99687.31;108788;1251;93981;-74
2024/01/27 13:43:55;;;;;;;6.90;3.50;;;;;;;2.29;81.25;99691.31;108902;1250;92971;-74
2024/01/27 13:46:21;;;;;;;12.90;7.10;;;;;;;2.30;81.36;99696.00;108783;1251;93338;-74
2024/01/27 13:48:51;;;;;;;14.80;6.00;;;;;;;2.29;81.36;99699.52;108947;1250;107757;-75
2024/01/27 13:51:17;;;;;;;;;;;;;;;2.30;81.38;99703.88;108700;1251;93244;-74
2024/01/27 13:53:44;;;;;;;18.40;7.70;;;;;;;2.28;81.51;99706.39;108997;1250;93269;-73
2024/01/27 13:56:14;;;;;;;13.20;6.20;;;;;;;2.30;81.23;99709.67;108923;1251;93189;-74
2024/01/27 13:58:41;;;;;;;11.00;5.30;;;;;;;2.28;81.38;99714.77;108957;1249;93057;-74
2024/01/27 14:01:08;;;;;;;12.20;5.10;;;;;;;2.25;81.58;99715.02;108863;1250;93238;-74
2024/01/27 14:03:34;;;;;;;12.80;5.80;;;;;;;2.24;81.50;99718.92;108866;1250;92981;-74
2024/01/27 14:06:01;;;;;;;;;;;;;;;2.25;81.66;99715.04;108879;1250;92952;-74
2024/01/27 14:08:28;;;;;;;10.10;4.80;;;;;;;2.25;81.70;99726.24;108923;1250;94187;-74
2024/01/27 14:10:54;;;;;;;10.80;4.30;;;;;;;2.26;81.53;99737.07;108723;1251;108628;-74